Date,TemperatureHighF,TemperatureAvgF,TemperatureLowF,DewpointHighF,DewpointAvgF,DewpointLowF,HumidityHigh,HumidityAvg,HumidityLow,PressureMaxIn,PressureMinIn,WindSpeedMaxMPH,WindSpeedAvgMPH,GustSpeedMaxMPH,PrecipitationSumIn
2013-1-1,19,1,-11,6,-5,-17,88,73,52,30.81,30.35,5,1,11,0.00
2013-1-2,20,-2,-18,3,-11,-23,84,68,45,30.97,30.66,9,2,13,0.00
2013-1-3,18,-2,-12,-1,-11,-18,85,66,38,31.09,30.83,10,2,14,0.00
2013-1-4,25,3,-7,3,-7,-14,84,63,36,31.00,30.60,11,2,17,0.00
2013-1-5,30,7,-8,5,-2,-13,86,67,32,30.96,30.71,9,2,15,0.00
2013-1-6,31,10,-5,8,-1,-9,87,64,34,30.95,30.60,10,2,19,0.00
2013-1-7,33,12,2,7,0,-5,77,60,31,30.62,30.33,9,2,14,0.00
2013-1-8,32,13,3,9,0,-6,78,57,31,30.75,30.41,10,3,16,0.00
2013-1-9,35,15,5,12,5,-1,85,65,36,30.88,30.57,11,3,15,0.00
2013-1-10,34,18,6,23,8,-1,88,65,35,30.57,29.88,12,3,17,0.00
2013-1-11,25,10,-20,22,1,-26,89,69,35,30.20,29.53,10,0,18,0.00
2013-1-12,3,-9,-21,-8,-18,-27,78,66,50,30.71,30.20,10,2,14,0.00
2013-1-13,8,-11,-22,-1,-18,-28,84,71,60,30.82,30.64,10,2,16,0.00
2013-1-14,12,-3,-18,1,-9,-25,84,72,59,30.82,30.57,8,1,9,0.00
2013-1-15,21,-3,-18,0,-12,-25,85,65,38,31.02,30.73,10,2,15,0.00
2013-1-16,29,10,-3,13,2,-8,88,71,47,31.02,30.67,10,2,15,0.00
2013-1-17,34,14,0,17,7,-4,88,75,49,30.99,30.74,10,2,14,0.00
2013-1-18,35,12,-1,15,5,-6,88,75,42,30.84,30.56,11,2,20,0.00
2013-1-19,36,12,2,12,3,-4,85,66,33,30.89,30.65,9,2,15,0.00
2013-1-20,33,14,3,12,3,-4,75,62,36,30.79,30.52,12,3,17,0.00
2013-1-21,39,17,4,13,4,-4,79,58,31,30.78,30.49,11,3,16,0.00
2013-1-22,43,19,3,14,5,-1,82,56,25,30.75,30.50,15,3,15,0.01
2013-1-23,35,18,5,6,1,-5,61,48,26,30.89,30.66,13,3,19,0.00
2013-1-24,46,27,14,22,13,4,87,58,29,30.73,30.35,12,2,15,0.00
2013-1-25,45,28,15,27,20,11,89,75,46,30.51,30.24,6,1,9,0.00
2013-1-26,36,27,18,30,24,15,91,86,73,30.39,30.00,6,1,7,0.02
2013-1-27,49,26,9,33,20,6,91,79,39,30.10,29.92,6,0,9,0.22
2013-1-28,36,27,12,30,23,8,91,84,63,30.02,29.67,5,0,10,0.03
2013-1-29,22,12,-7,10,1,-12,88,63,36,30.30,29.76,12,2,19,0.00
2013-1-30,33,17,-9,12,3,-14,85,55,40,30.50,30.30,17,3,20,0.00
2013-1-31,44,22,7,13,9,2,88,62,21,30.51,30.27,8,1,14,0.03
2013-2-1,40,18,4,15,8,0,87,67,34,30.67,30.38,9,2,13,0.00
2013-2-2,37,18,6,13,5,-1,83,61,27,30.84,30.63,8,2,13,0.00
2013-2-3,33,21,9,16,9,2,79,59,40,30.73,30.31,11,3,14,0.00
2013-2-4,41,20,9,16,9,4,85,65,28,30.43,30.14,9,2,14,0.00
2013-2-5,42,22,10,16,8,0,86,58,29,30.47,30.18,11,2,14,0.00
2013-2-6,41,24,11,27,14,5,90,68,34,30.31,30.08,10,2,14,0.00
2013-2-7,41,20,9,14,9,4,89,67,24,30.45,30.23,9,2,12,0.00
2013-2-8,41,25,8,24,14,2,82,65,35,30.43,29.91,13,2,22,0.00
2013-2-9,34,23,2,20,14,-1,86,68,45,29.90,29.50,9,1,13,0.00
2013-2-10,30,11,-3,10,3,-7,88,70,37,30.31,29.83,10,2,12,0.00
2013-2-11,29,15,-2,15,5,-7,86,67,29,30.37,30.11,9,1,12,0.01
2013-2-12,33,8,-7,5,-3,-13,84,63,27,30.65,30.37,11,2,13,0.03
2013-2-13,40,14,-2,14,4,-6,86,66,33,30.67,30.32,10,2,15,0.08
2013-2-14,37,18,1,12,4,-3,87,56,28,30.54,30.38,10,2,16,0.01
2013-2-15,34,18,1,8,1,-5,71,50,26,30.69,30.49,13,3,17,0.00
2013-2-16,49,19,4,11,3,-4,83,54,15,30.77,30.38,10,2,15,0.00
2013-2-17,48,20,4,8,2,-4,82,49,11,30.51,29.94,13,3,20,0.00
2013-2-18,41,20,2,8,-1,-16,79,47,8,30.37,29.98,9,1,11,0.00
2013-2-19,35,15,0,9,-1,-10,82,53,23,30.43,30.11,11,3,14,0.00
2013-2-20,34,18,-1,24,12,-5,87,76,59,30.12,29.69,3,0,6,0.01
2013-2-21,37,15,-4,17,6,-8,89,69,37,30.20,29.88,8,1,12,0.11
2013-2-22,31,14,3,16,5,-3,88,70,37,30.37,30.08,8,2,15,0.00
2013-2-23,29,12,-4,14,3,-10,88,66,39,30.46,30.05,8,2,13,0.01
2013-2-24,30,16,-4,14,4,-10,89,62,16,30.25,29.93,12,2,18,0.00
2013-2-25,44,16,-1,6,0,-6,82,55,13,30.44,30.11,8,1,13,0.02
2013-2-26,32,15,2,14,1,-5,79,54,25,30.44,29.97,10,2,21,0.00
2013-2-27,35,17,0,3,-1,-6,80,51,17,30.68,30.41,8,1,11,0.00
2013-2-28,38,19,0,10,0,-10,67,45,20,30.79,30.55,10,3,19,0.00
2013-3-1,46,31,19,17,13,9,74,50,26,30.60,30.30,12,2,21,0.00
2013-3-2,55,31,12,22,15,7,83,56,18,30.61,30.31,8,2,12,0.00
2013-3-3,54,34,19,27,18,11,77,54,21,30.34,29.84,11,2,13,0.00
2013-3-4,48,34,18,30,20,7,89,59,21,30.14,29.70,10,2,18,0.02
2013-3-5,41,24,10,18,9,0,81,54,26,30.45,30.14,9,2,14,0.00
2013-3-6,52,31,14,19,12,5,73,49,16,30.42,30.06,10,2,13,0.00
2013-3-7,54,32,17,19,13,-1,77,53,10,30.18,29.96,10,1,15,0.00
2013-3-8,46,28,17,28,19,12,90,70,32,30.06,29.77,10,2,21,0.00
2013-3-9,31,22,8,22,17,4,90,81,55,30.17,29.73,4,0,6,0.00
2013-3-10,45,21,0,17,9,-5,89,63,25,30.44,30.17,7,1,12,0.24
2013-3-11,52,30,8,20,11,4,83,50,19,30.43,30.09,8,1,14,0.01
2013-3-12,54,32,15,21,16,11,88,56,21,30.37,30.17,7,1,12,0.00
2013-3-13,57,37,20,24,17,12,73,49,20,30.45,30.26,8,2,12,0.00
2013-3-14,62,38,24,24,17,9,74,47,13,30.49,30.21,7,2,13,0.00
2013-3-15,65,41,27,25,16,8,67,42,11,30.29,29.92,15,2,16,0.00
2013-3-16,52,34,26,36,23,16,91,67,30,29.98,29.75,9,2,13,0.08
2013-3-17,50,34,22,32,18,5,91,59,17,29.94,29.67,14,2,20,0.05
2013-3-18,46,33,18,16,8,-3,78,41,13,30.05,29.87,19,2,19,0.00
2013-3-19,49,32,20,14,9,3,67,42,15,30.30,30.04,7,1,10,0.00
2013-3-20,50,33,18,25,14,6,80,47,22,30.32,29.95,13,2,15,0.00
2013-3-21,50,35,24,31,18,8,88,56,22,29.96,29.58,12,2,19,0.00
2013-3-22,46,31,18,15,7,-7,61,39,11,29.83,29.58,10,2,21,0.00
2013-3-23,28,20,7,9,-1,-11,72,43,19,30.26,29.67,16,2,23,0.00
2013-3-24,34,17,2,5,-3,-8,70,46,17,30.38,30.17,11,2,17,0.00
2013-3-25,43,21,4,9,-3,-20,77,44,6,30.46,30.26,8,2,13,0.00
2013-3-26,53,32,13,18,9,2,75,41,18,30.40,30.00,9,2,15,0.00
2013-3-27,57,39,21,22,16,8,84,46,15,30.09,29.91,8,1,13,0.00
2013-3-28,59,40,24,24,16,10,76,44,14,30.12,29.96,8,2,14,0.00
2013-3-29,60,39,24,24,18,12,79,49,16,30.18,30.01,6,1,14,0.00
2013-3-30,60,40,24,25,20,12,83,50,16,30.22,29.95,9,2,13,0.00
2013-3-31,61,42,28,25,18,3,77,46,10,30.10,29.87,8,2,12,0.00
2013-4-1,59,41,26,26,19,12,75,46,17,30.00,29.76,9,2,18,0.00
2013-4-2,51,36,21,26,16,2,82,51,14,29.98,29.77,13,2,21,0.00
2013-4-3,56,38,24,25,19,9,86,53,17,30.17,29.97,13,2,16,0.00
2013-4-4,64,43,25,25,16,3,75,42,9,30.24,29.97,9,2,14,0.00
2013-4-5,61,45,32,29,20,5,75,42,12,30.04,29.68,11,2,23,0.00
2013-4-6,60,45,29,28,20,9,83,45,15,29.87,29.69,8,2,18,0.00
2013-4-7,59,42,30,25,18,12,72,44,16,29.79,29.59,10,2,19,0.00
2013-4-8,51,44,29,33,25,13,86,50,21,29.68,29.25,9,2,23,0.01
2013-4-9,33,30,22,30,26,18,91,85,73,29.84,29.33,2,0,4,0.00
2013-4-10,43,27,14,26,17,11,90,68,38,30.03,29.84,10,1,13,0.32
2013-4-11,52,32,13,27,17,9,88,61,27,30.06,29.86,9,1,13,0.00
2013-4-12,55,37,23,26,18,10,77,53,18,29.98,29.82,8,2,13,0.00
2013-4-13,56,42,26,29,19,14,84,45,21,29.95,29.48,13,2,20,0.00
2013-4-14,54,42,31,30,24,16,89,52,23,29.52,29.36,15,2,23,0.17
2013-4-15,56,46,32,29,24,15,74,43,24,29.55,29.40,12,3,21,0.00
2013-4-16,58,46,31,25,17,6,71,35,13,29.58,29.38,18,4,29,0.00
2013-4-17,45,33,20,29,21,8,88,63,29,29.84,29.43,35,2,35,0.07
2013-4-18,33,22,10,12,3,-2,77,44,22,30.42,29.85,14,3,19,0.00
2013-4-19,53,31,9,18,9,0,81,44,16,30.48,30.07,10,2,13,0.01
2013-4-20,47,35,23,29,21,16,87,59,29,30.10,29.85,9,1,13,0.00
2013-4-21,59,38,19,22,13,-5,90,48,7,30.23,29.98,9,1,17,0.00
2013-4-22,62,46,30,28,19,9,80,41,12,30.04,29.64,16,2,21,0.00
2013-4-23,47,34,23,25,13,-13,78,47,8,30.12,29.64,11,2,20,0.00
2013-4-24,54,38,23,17,8,3,59,34,13,30.18,30.03,9,2,17,0.00
2013-4-25,60,41,26,35,20,13,88,50,17,30.15,29.79,16,2,22,0.03
2013-4-26,60,43,30,33,23,12,89,53,16,30.20,29.96,7,1,13,0.00
2013-4-27,64,44,25,24,15,2,87,41,9,30.27,30.02,11,2,14,0.00
2013-4-28,70,48,29,25,14,8,52,30,10,30.11,29.76,8,2,12,0.00
2013-4-29,70,52,34,26,18,10,57,30,10,29.85,29.54,14,2,15,0.00
2013-4-30,69,52,35,25,18,6,57,31,9,29.61,29.46,16,3,26,0.00
2013-5-1,62,45,26,26,14,-8,66,35,6,30.14,29.53,21,3,33,0.00
2013-5-2,53,36,17,14,5,-8,76,35,8,30.40,30.14,12,2,17,0.00
2013-5-3,61,42,22,22,9,3,58,30,11,30.40,29.88,12,3,18,0.00
2013-5-4,60,43,22,24,16,8,76,38,14,30.01,29.84,10,2,16,0.00
2013-5-5,58,44,27,30,22,18,75,45,23,30.04,29.88,11,1,17,0.00
2013-5-6,47,40,33,39,34,28,90,79,60,30.00,29.82,4,0,6,0.38
2013-5-7,58,43,31,36,29,23,91,64,27,30.04,29.82,10,1,19,0.02
2013-5-8,52,41,30,33,26,16,88,59,25,29.94,29.85,10,1,15,0.03
2013-5-9,53,44,31,32,30,26,87,60,37,30.14,29.98,12,3,17,0.00
2013-5-10,53,38,26,39,30,24,90,73,37,30.34,30.12,9,1,16,0.14
2013-5-11,59,43,31,34,29,24,90,63,26,30.39,30.20,9,2,18,0.01
2013-5-12,69,49,33,35,28,22,83,50,19,30.31,30.05,10,2,12,0.00
2013-5-13,72,52,34,43,31,22,83,51,16,30.21,29.97,10,2,17,0.00
2013-5-14,68,52,38,42,35,31,82,56,27,30.02,29.79,7,2,15,0.00
2013-5-15,70,53,41,41,37,31,86,59,24,29.87,29.69,7,2,14,0.00
2013-5-16,72,52,35,36,28,21,89,48,16,29.84,29.66,14,2,16,0.00
2013-5-17,71,53,34,29,15,-2,70,31,6,29.84,29.67,15,3,24,0.00
2013-5-18,63,48,34,33,21,14,67,37,18,29.82,29.64,14,2,22,0.00
2013-5-19,59,43,31,27,23,11,76,49,15,29.86,29.68,12,2,15,0.00
2013-5-20,59,41,27,37,27,19,90,62,24,29.99,29.82,10,2,12,0.13
2013-5-21,67,47,28,33,25,14,91,53,13,30.05,29.76,10,2,16,0.01
2013-5-22,72,53,32,31,23,12,78,38,11,29.82,29.60,9,2,17,0.00
2013-5-23,73,53,32,30,20,6,71,35,8,29.84,29.66,16,2,32,0.00
2013-5-24,72,53,33,26,17,6,64,30,9,29.89,29.76,15,2,31,0.00
2013-5-25,74,54,35,27,16,2,66,28,6,29.94,29.75,12,2,23,0.00
2013-5-26,73,55,37,27,15,0,67,27,6,29.87,29.70,9,2,19,0.00
2013-5-27,70,52,34,24,15,5,53,26,8,29.80,29.57,10,3,19,0.00
2013-5-28,70,50,34,25,14,-3,61,28,7,29.72,29.47,11,3,35,0.00
2013-5-29,62,49,34,30,21,12,66,38,16,29.65,29.40,12,2,19,0.00
2013-5-30,67,50,32,30,20,6,75,39,9,29.74,29.58,13,2,24,0.00
2013-5-31,67,51,35,23,14,-7,54,28,5,29.91,29.69,13,3,24,0.00
2013-6-1,73,50,25,26,13,-12,65,30,3,30.07,29.89,12,2,16,0.00
2013-6-2,78,55,33,33,20,12,64,30,9,30.02,29.69,8,2,17,0.00
2013-6-3,76,54,40,42,31,21,75,45,14,29.80,29.60,15,2,23,0.03
2013-6-4,74,55,39,42,31,24,79,45,16,29.87,29.71,10,2,18,0.02
2013-6-5,78,59,39,34,23,8,77,32,7,29.85,29.62,9,2,15,0.00
2013-6-6,77,54,39,36,26,17,69,37,11,29.88,29.67,9,2,15,0.00
2013-6-7,70,52,34,39,30,24,82,48,20,29.94,29.70,11,2,19,0.00
2013-6-8,83,60,36,37,27,16,79,35,9,29.79,29.57,9,2,16,0.00
2013-6-9,86,65,42,32,23,9,69,28,6,29.79,29.61,9,2,14,0.00
2013-6-10,87,67,45,32,23,11,45,23,6,29.76,29.55,18,2,20,0.00
2013-6-11,82,64,45,31,18,-4,45,22,4,29.77,29.60,13,2,24,0.00
2013-6-12,84,63,44,32,21,14,48,23,8,29.93,29.72,14,2,16,0.00
2013-6-13,84,65,46,39,25,19,42,24,10,29.86,29.62,9,2,18,0.00
2013-6-14,81,64,47,42,29,10,57,32,9,29.75,29.50,10,1,14,0.00
2013-6-15,78,61,42,38,24,14,50,26,10,29.84,29.66,7,2,16,0.00
2013-6-16,74,58,43,46,33,25,70,42,17,29.90,29.76,12,2,27,0.02
2013-6-17,74,57,39,40,33,25,85,45,18,29.96,29.78,9,2,15,0.02
2013-6-18,78,58,40,43,31,10,77,41,9,29.96,29.66,12,2,19,0.00
2013-6-19,79,60,39,23,10,-9,39,18,3,29.75,29.54,14,2,21,0.00
2013-6-20,75,56,37,29,14,4,56,22,7,29.77,29.64,8,1,15,0.00
2013-6-21,77,52,40,30,18,12,56,30,9,29.87,29.72,8,2,14,0.00
2013-7-5,80,62,50,56,50,42,90,68,26,29.73,29.52,6,1,12,0.18
2013-7-6,76,57,48,55,49,42,91,77,30,29.82,29.69,5,1,9,0.14
2013-7-7,80,60,51,58,48,42,90,68,27,29.84,29.68,5,1,11,0.98
2013-7-8,79,60,48,56,50,42,91,72,27,29.95,29.84,6,1,11,0.03
2013-7-9,82,64,49,52,46,39,83,57,22,29.99,29.79,8,2,11,0.00
2013-7-10,79,62,46,56,48,42,88,62,29,29.93,29.72,7,1,16,0.09
2013-7-11,82,64,50,53,47,40,85,58,25,29.89,29.62,7,2,17,0.00
2013-7-12,76,61,52,57,51,47,84,69,41,29.79,29.63,7,1,12,0.06
2013-7-13,78,61,52,58,51,47,90,71,36,29.88,29.72,7,1,12,1.38
2013-7-14,78,60,51,57,52,46,91,77,34,29.90,29.73,11,1,12,0.10
2013-7-15,67,58,50,56,52,47,91,81,55,29.90,29.78,6,1,10,0.21
2013-7-16,71,58,43,52,45,40,91,68,34,29.99,29.85,12,2,15,0.01
2013-7-17,77,59,43,52,44,33,90,63,21,30.05,29.84,9,1,12,0.00
2013-7-18,80,61,45,54,47,40,90,66,24,29.98,29.71,9,2,15,0.11
2013-7-19,75,60,51,54,50,46,89,72,42,29.88,29.75,6,1,13,0.01
2013-7-20,80,62,52,53,49,41,87,66,27,29.87,29.62,8,2,14,0.00
2013-8-1,74,64,51,56,48,40,80,57,43,29.92,29.77,5,1,8,0.06
2013-8-18,77,64,56,49,46,39,73,54,30,29.95,29.83,6,1,11,0.00
2013-8-19,78,61,48,59,48,37,89,66,25,29.95,29.77,6,1,12,0.17
2013-8-20,78,62,47,52,45,38,91,60,24,29.92,29.76,7,1,12,0.01
2013-8-21,78,61,49,51,46,41,82,59,27,29.94,29.76,15,2,16,0.05
2013-8-22,79,64,50,56,48,42,88,60,29,29.97,29.73,7,2,12,0.09
2013-8-23,78,61,49,57,47,30,91,66,18,29.86,29.65,6,1,11,0.13
2013-8-24,70,58,50,54,49,40,89,74,45,29.98,29.79,5,1,8,0.28
2013-8-25,65,57,50,55,51,48,90,82,59,30.01,29.92,7,1,10,0.36
2013-8-26,78,61,50,58,52,47,91,75,37,30.04,29.81,7,0,7,0.04
2013-8-27,77,60,48,53,47,42,89,66,30,29.96,29.76,8,2,16,0.00
2013-8-28,80,62,49,52,46,37,85,61,22,29.90,29.74,7,2,11,0.00
2013-8-29,79,62,48,52,46,41,83,59,28,29.97,29.83,7,1,9,0.00
2013-8-30,82,66,55,52,46,36,75,51,21,29.94,29.71,7,2,16,0.00
2013-8-31,81,62,52,53,48,42,78,61,28,29.81,29.68,7,2,12,0.00
2013-9-1,77,61,49,57,48,43,87,67,31,29.90,29.71,5,1,10,0.07
2013-9-2,76,58,46,56,50,43,91,78,42,29.96,29.81,7,1,12,0.09
2013-9-3,78,62,48,54,48,44,84,65,35,29.99,29.83,8,2,12,0.00
2013-9-4,79,63,53,57,49,44,81,63,33,29.97,29.80,6,1,10,0.00
2013-9-5,82,63,49,50,45,37,81,57,24,30.01,29.81,8,1,13,0.00
2013-9-6,81,63,47,46,41,27,76,50,15,30.01,29.76,9,2,13,0.00
2013-9-7,79,62,47,49,42,38,76,52,24,29.92,29.72,13,2,14,0.00
2013-9-8,76,62,49,49,44,42,75,54,30,29.85,29.58,9,2,15,0.00
2013-9-9,72,57,45,54,45,40,89,66,42,29.75,29.60,8,1,9,0.02
2013-9-10,61,54,46,52,48,42,90,82,61,29.91,29.72,4,0,5,0.42
2013-9-11,68,56,47,54,50,44,90,79,53,29.93,29.81,7,1,12,0.04
2013-9-12,68,54,46,53,48,42,90,80,54,30.00,29.83,8,1,15,0.18
2013-9-13,64,55,47,53,48,44,90,80,59,29.86,29.70,8,1,9,0.28
2013-9-14,62,51,45,53,46,42,91,84,60,29.88,29.71,7,1,15,0.60
2013-9-15,64,52,45,51,46,42,90,81,54,30.01,29.87,4,0,7,0.13
2013-9-16,66,53,44,52,47,41,91,82,53,30.04,29.86,6,0,8,0.23
2013-9-17,70,53,43,50,44,40,91,75,36,30.01,29.75,6,1,11,0.01
2013-9-18,66,52,46,52,46,42,91,81,48,29.86,29.66,8,1,13,0.45
2013-9-19,69,52,41,51,44,39,91,78,40,29.92,29.75,6,1,10,0.09
2013-9-20,69,52,39,49,40,30,91,70,24,30.00,29.80,7,1,11,0.01
2013-9-21,72,53,39,45,39,34,89,63,25,29.98,29.71,7,1,13,0.00
2013-9-22,56,46,34,49,42,32,91,87,71,29.75,29.40,6,1,10,0.98
2013-9-23,57,44,35,36,32,25,91,65,29,30.11,29.59,11,2,18,0.01
2013-9-24,67,45,31,38,31,26,81,62,29,30.20,29.92,8,2,13,0.00
2013-9-25,68,52,32,36,29,24,80,46,25,29.97,29.55,14,2,21,0.00
2013-9-26,66,50,33,36,26,18,80,44,16,29.66,29.51,13,2,26,0.00
2013-9-27,52,42,27,41,34,23,90,76,38,30.01,29.54,7,1,25,0.21
2013-9-28,59,38,22,36,25,18,90,65,25,30.29,30.01,8,1,12,0.00
2013-9-29,70,46,30,36,28,17,86,58,14,30.27,29.93,8,1,15,0.00
2013-9-30,71,49,35,41,31,26,86,56,25,30.05,29.74,6,2,11,0.00
2013-10-1,72,52,36,38,32,21,86,51,15,29.97,29.75,9,2,13,0.00
2013-10-2,70,47,32,34,27,19,75,51,17,29.98,29.73,7,2,11,0.00
2013-10-3,64,47,32,33,27,23,75,49,22,29.85,29.58,13,2,22,0.00
2013-10-4,53,40,27,34,15,0,89,43,12,30.09,29.56,12,2,19,0.01
2013-10-5,56,38,25,21,11,0,62,36,11,30.30,30.09,7,2,15,0.00
2013-10-6,64,40,25,30,15,6,79,41,14,30.39,30.16,8,2,11,0.00
2013-10-7,68,45,29,33,25,21,81,50,20,30.31,29.97,9,2,12,0.00
2013-10-8,66,45,33,30,26,22,79,51,21,30.05,29.70,14,2,16,0.00
2013-10-9,60,44,28,34,25,19,82,53,21,29.89,29.75,13,2,20,0.00
2013-10-10,49,37,25,36,31,23,90,81,45,29.86,29.54,7,1,16,0.22
2013-10-11,50,34,21,34,27,19,91,76,44,30.17,29.85,6,1,9,0.03
2013-10-12,54,36,25,29,24,19,90,67,29,30.26,30.02,7,2,11,0.00
2013-10-13,58,41,28,39,31,24,89,71,36,30.23,29.90,11,1,19,0.01
2013-10-14,51,41,27,37,22,14,86,51,24,30.05,29.78,11,2,17,0.00
2013-10-15,48,34,23,30,21,16,89,62,30,30.19,30.01,7,1,13,0.00
2013-10-16,48,34,25,29,24,18,90,70,34,30.19,29.99,5,1,8,0.16
2013-10-17,52,33,20,30,19,13,85,60,28,30.26,29.93,8,2,11,0.00
2013-10-18,48,32,22,21,14,6,87,55,18,30.32,30.05,8,1,17,0.00
2013-10-19,58,35,21,24,14,9,75,46,18,30.33,30.07,7,2,12,0.00
2013-10-20,59,37,24,27,18,11,77,51,17,30.11,29.81,9,2,12,0.00
2013-10-21,57,37,23,23,16,6,79,49,13,30.25,30.03,10,1,12,0.00
2013-10-22,61,38,25,28,18,13,76,48,18,30.35,30.11,7,2,12,0.00
2013-10-23,62,39,27,28,22,17,77,54,17,30.29,30.04,8,2,11,0.00
2013-10-24,63,40,28,30,23,19,79,54,20,30.29,30.04,10,2,12,0.00
2013-10-25,52,40,33,36,30,24,89,69,45,30.23,30.05,5,0,10,0.11
2013-10-26,56,41,31,37,32,27,90,73,36,30.32,30.15,8,1,15,0.01
2013-10-27,58,39,29,33,28,25,85,67,30,30.22,29.84,8,2,13,0.00
2013-10-28,53,40,28,31,24,19,88,59,27,29.93,29.76,18,2,21,0.00
2013-10-29,47,37,28,31,27,16,90,69,30,29.92,29.79,11,2,25,0.03
2013-10-30,38,27,18,30,22,14,90,81,59,30.03,29.88,6,1,9,0.19
2013-10-31,47,29,16,22,18,12,87,67,34,30.19,29.99,6,1,12,0.08
2013-11-1,48,32,18,23,17,13,89,60,27,30.40,30.17,13,2,16,0.00
2013-11-2,56,33,21,26,16,11,81,55,21,30.42,30.08,8,2,14,0.00
2013-11-3,50,34,23,26,20,16,79,60,38,30.11,29.72,14,1,20,0.00
2013-11-4,49,34,18,30,19,12,88,59,23,30.00,29.81,12,1,16,0.00
2013-11-5,40,30,15,30,17,2,90,63,28,30.32,29.78,11,1,13,0.05
2013-11-6,47,24,10,19,8,-1,84,54,27,30.70,30.32,11,2,13,0.00
2013-11-7,51,30,16,24,16,12,87,61,26,30.75,30.37,8,1,12,0.00
2013-11-8,60,35,24,24,17,11,84,55,15,30.38,29.99,7,1,11,0.00
2013-11-9,58,35,23,24,19,13,84,57,17,30.35,30.11,7,1,10,0.00
2013-11-10,59,36,25,25,20,16,78,56,19,30.43,30.18,11,2,14,0.00
2013-11-11,58,36,24,21,17,12,73,51,16,30.53,30.26,7,2,14,0.00
2013-11-12,57,34,22,23,17,13,83,54,18,30.65,30.43,11,2,15,0.00
2013-11-13,54,34,23,25,19,13,79,56,19,30.57,30.17,8,2,14,0.00
2013-11-14,54,33,21,23,18,8,85,59,17,30.18,29.89,6,1,9,0.00
2013-11-15,47,31,19,30,22,15,90,73,34,29.96,29.66,11,1,23,0.00
2013-11-16,44,32,21,29,24,18,90,75,46,29.71,29.55,8,1,14,0.31
2013-11-17,48,33,22,25,21,17,89,63,33,30.24,29.68,6,1,12,0.09
2013-11-18,46,26,15,22,16,10,83,68,32,30.45,30.24,10,2,15,0.00
2013-11-19,51,31,20,27,20,14,84,67,33,30.37,29.94,8,2,13,0.00
2013-11-20,48,32,20,30,24,17,90,74,39,30.05,29.79,6,1,12,0.00
2013-11-21,46,35,27,31,27,20,90,77,35,30.16,29.92,7,1,13,0.01
2013-11-22,32,29,27,30,26,24,91,89,87,30.43,30.14,2,0,3,0.00
2013-11-23,27,27,27,25,25,25,90,90,90,30.42,30.42,0,0,0,0.00
2013-12-5,25,7,-4,4,-3,-10,84,65,36,30.30,29.98,9,1,12,0.00
2013-12-6,24,4,-7,2,-5,-13,84,68,31,30.58,30.29,7,1,11,0.00
2013-12-7,27,12,0,14,4,-6,88,72,35,30.57,29.93,12,1,16,0.00
2013-12-8,21,10,-7,13,0,-12,88,66,32,30.32,29.77,8,1,13,0.00
2013-12-9,18,-1,-14,-7,-14,-21,80,58,25,31.03,30.32,9,2,15,0.00
2013-12-10,20,0,-11,2,-9,-18,83,65,38,31.05,30.73,12,2,15,0.00
2013-12-11,27,8,-2,9,0,-7,87,71,43,31.09,30.88,9,2,14,0.00
2013-12-12,28,12,2,8,2,-5,76,65,41,31.07,30.58,12,4,16,0.00
2013-12-13,41,18,4,14,6,-1,80,63,28,30.58,30.19,11,3,16,0.01
2013-12-14,34,14,3,12,5,0,87,70,36,30.78,30.41,6,1,13,0.00
2013-12-15,46,16,3,20,8,0,88,71,33,30.80,30.62,6,1,12,0.01
2013-12-16,50,21,4,21,11,0,89,69,29,30.80,30.57,8,1,16,0.02
2013-12-17,38,22,11,15,10,4,78,61,34,30.78,30.54,10,3,14,0.00
2013-12-18,36,22,13,18,12,6,88,67,40,30.60,30.15,13,3,17,0.00
2013-12-19,43,25,11,22,15,7,89,70,38,30.15,29.81,9,1,13,0.00
2013-12-20,40,23,13,24,16,9,90,75,43,29.93,29.70,5,0,9,0.00
2013-12-21,29,17,8,16,8,3,87,71,52,30.11,29.71,7,2,13,0.00
2013-12-22,31,10,-4,10,2,-8,86,72,33,30.66,30.11,9,1,11,0.00
2013-12-23,32,11,-2,11,3,-6,87,72,39,30.89,30.66,7,1,10,0.00
2013-12-24,42,20,4,20,9,1,88,63,34,30.85,30.39,8,2,16,0.00
2013-12-25,33,12,2,8,1,-5,84,61,27,30.85,30.56,7,2,14,0.00
2013-12-26,34,17,5,12,6,-2,79,62,36,30.85,30.62,10,2,15,0.00
2013-12-27,38,19,11,17,10,5,86,70,39,30.76,30.50,10,2,15,0.00
2013-12-28,36,21,12,19,13,7,86,72,47,30.53,30.15,10,2,15,0.00
2013-12-29,35,18,2,21,12,-2,89,80,48,30.46,30.18,7,1,10,0.03
2013-12-30,35,13,2,14,4,-4,87,67,39,30.76,30.45,8,1,10,0.00
2013-12-31,41,16,6,20,7,1,87,69,41,30.74,30.41,9,2,14,0.00
2014-1-1,39,27,7,18,6,-3,90,48,19,30.48,30.35,13,3,19,0.00
2014-1-2,37,17,4,11,3,-3,83,57,26,30.57,30.40,9,1,12,0.00